createdAt,value
2023-04-13T00:00:52.802Z,0.00
2023-04-13T00:01:52.989Z,0.00
2023-04-13T00:02:53.151Z,0.00
2023-04-13T00:03:53.036Z,0.00
2023-04-13T00:04:53.087Z,0.00
2023-04-13T00:05:53.475Z,0.00
2023-04-13T00:06:53.119Z,0.00
2023-04-13T00:07:53.252Z,0.00
2023-04-13T00:08:53.245Z,0.00
2023-04-13T00:09:53.399Z,0.00
2023-04-13T00:10:53.350Z,0.00
2023-04-13T00:11:53.426Z,0.00
2023-04-13T00:12:53.570Z,0.00
2023-04-13T00:13:53.553Z,0.00
2023-04-13T00:14:53.603Z,0.00
2023-04-13T00:15:53.691Z,0.00
2023-04-13T00:16:53.783Z,0.00
2023-04-13T00:17:53.880Z,0.00
2023-04-13T00:18:53.833Z,0.00
2023-04-13T00:19:53.927Z,0.00
2023-04-13T00:20:53.955Z,0.00
2023-04-13T00:21:54.028Z,0.00
2023-04-13T00:22:54.118Z,0.00
2023-04-13T00:23:54.113Z,0.00
2023-04-13T00:24:54.166Z,0.00
2023-04-13T00:25:54.221Z,0.00
2023-04-13T00:26:54.338Z,0.00
2023-04-13T00:27:54.366Z,0.00
2023-04-13T00:28:54.478Z,0.00
2023-04-13T00:29:54.547Z,0.00
2023-04-13T00:30:54.556Z,0.00
2023-04-13T00:31:54.578Z,0.00
2023-04-13T00:32:54.673Z,0.00
2023-04-13T00:33:54.709Z,0.00
2023-04-13T00:34:54.829Z,0.00
2023-04-13T00:35:54.818Z,0.00
2023-04-13T00:36:54.873Z,0.00
2023-04-13T00:37:54.953Z,0.00
2023-04-13T00:38:55.076Z,0.00
2023-04-13T00:39:55.077Z,0.00
2023-04-13T00:40:55.130Z,0.00
2023-04-13T00:41:55.182Z,0.00
2023-04-13T00:42:55.237Z,0.00
2023-04-13T00:43:55.371Z,0.00
2023-04-13T00:44:55.362Z,0.00
2023-04-13T00:45:55.429Z,0.00
2023-04-13T00:46:55.452Z,0.00
2023-04-13T00:47:55.532Z,0.00
2023-04-13T00:48:55.630Z,0.00
2023-04-13T00:49:55.627Z,0.00
2023-04-13T00:50:55.742Z,0.00
2023-04-13T00:51:55.770Z,0.00
2023-04-13T00:52:55.792Z,0.00
2023-04-13T00:53:55.973Z,0.00
2023-04-13T00:54:55.911Z,0.00
2023-04-13T00:55:56.002Z,0.00
2023-04-13T00:56:56.027Z,0.00
2023-04-13T00:57:56.088Z,0.00
2023-04-13T00:58:56.135Z,0.00
2023-04-13T00:59:56.244Z,0.00
2023-04-13T01:00:56.302Z,0.00
2023-04-13T01:01:56.438Z,0.00
2023-04-13T01:02:56.613Z,0.00
2023-04-13T01:03:56.652Z,0.00
2023-04-13T01:04:56.572Z,0.00
2023-04-13T01:05:56.574Z,0.00
2023-04-13T01:06:56.576Z,0.00
2023-04-13T01:07:56.615Z,0.00
2023-04-13T01:08:56.687Z,0.00
2023-04-13T01:09:56.738Z,0.00
2023-04-13T01:10:56.856Z,0.00
2023-04-13T01:11:56.822Z,0.00
2023-04-13T01:12:56.892Z,0.00
2023-04-13T01:13:57.171Z,0.00
2023-04-13T01:14:57.049Z,0.00
2023-04-13T01:15:57.072Z,0.00
2023-04-13T01:16:57.197Z,0.00
2023-04-13T01:17:57.272Z,0.00
2023-04-13T01:18:57.210Z,0.00
2023-04-13T01:19:57.350Z,0.00
2023-04-13T01:20:57.332Z,0.00
2023-04-13T01:21:57.399Z,0.00
2023-04-13T01:22:57.472Z,0.00
2023-04-13T01:23:57.888Z,0.00
2023-04-13T01:24:57.632Z,0.00
2023-04-13T01:25:57.693Z,0.00
2023-04-13T01:26:57.667Z,0.00
2023-04-13T01:27:57.711Z,0.00
2023-04-13T01:28:57.762Z,0.00
2023-04-13T01:29:57.893Z,0.00
2023-04-13T01:30:57.890Z,0.00
2023-04-13T01:31:57.985Z,0.00
2023-04-13T01:32:58.005Z,0.00
2023-04-13T01:33:58.311Z,0.00
2023-04-13T01:34:58.127Z,0.00
2023-04-13T01:35:58.146Z,0.00
2023-04-13T01:36:58.134Z,0.00
2023-04-13T01:37:58.196Z,0.00
2023-04-13T01:38:58.237Z,0.00
2023-04-13T01:39:58.323Z,0.00
2023-04-13T01:40:58.420Z,0.00
2023-04-13T01:41:58.380Z,0.00
2023-04-13T01:42:58.430Z,0.00
2023-04-13T01:43:59.016Z,0.00
2023-04-13T01:44:58.559Z,0.00
2023-04-13T01:45:58.712Z,0.00
2023-04-13T01:46:58.785Z,0.00
2023-04-13T01:47:58.735Z,0.00
2023-04-13T01:48:58.776Z,0.00
2023-04-13T01:49:58.797Z,0.00
2023-04-13T01:50:58.880Z,0.00
2023-04-13T01:51:58.939Z,0.00
2023-04-13T01:52:58.946Z,0.00
2023-04-13T01:53:59.125Z,0.00
2023-04-13T01:54:59.023Z,0.00
2023-04-13T01:55:59.066Z,0.00
2023-04-13T01:56:59.186Z,0.00
2023-04-13T01:57:59.166Z,0.00
2023-04-13T01:58:59.248Z,0.00
2023-04-13T01:59:59.257Z,0.00
2023-04-13T02:00:59.418Z,0.00
2023-04-13T02:01:59.472Z,0.00
2023-04-13T02:02:59.528Z,0.00
2023-04-13T02:03:59.888Z,0.00
2023-04-13T02:04:59.511Z,0.00
2023-04-13T02:05:59.594Z,0.00
2023-04-13T02:06:59.554Z,0.00
2023-04-13T02:07:59.613Z,0.00
2023-04-13T02:08:59.708Z,0.00
2023-04-13T02:09:59.704Z,0.00
2023-04-13T02:10:59.780Z,0.00
2023-04-13T02:11:59.850Z,0.00
2023-04-13T02:12:59.822Z,0.00
2023-04-13T02:14:00.087Z,0.00
2023-04-13T02:14:59.916Z,0.00
2023-04-13T02:15:59.972Z,0.00
2023-04-13T02:17:00.159Z,0.00
2023-04-13T02:18:00.125Z,0.00
2023-04-13T02:19:00.209Z,0.00
2023-04-13T02:20:00.220Z,0.00
2023-04-13T02:21:00.212Z,0.00
2023-04-13T02:22:00.242Z,0.00
2023-04-13T02:23:00.409Z,0.00
2023-04-13T02:24:00.670Z,0.00
2023-04-13T02:25:00.449Z,0.00
2023-04-13T02:26:00.437Z,0.00
2023-04-13T02:27:00.467Z,0.00
2023-04-13T02:28:00.513Z,0.00
2023-04-13T02:29:00.558Z,0.00
2023-04-13T02:30:00.684Z,0.00
2023-04-13T02:31:00.668Z,0.00
2023-04-13T02:32:00.723Z,0.00
2023-04-13T02:33:00.760Z,0.00
2023-04-13T02:34:01.069Z,0.00
2023-04-13T02:35:00.908Z,0.00
2023-04-13T02:36:00.880Z,0.00
2023-04-13T02:37:00.949Z,0.00
2023-04-13T02:38:00.979Z,0.00
2023-04-13T02:39:01.046Z,0.00
2023-04-13T02:40:01.121Z,0.00
2023-04-13T02:41:01.093Z,0.00
2023-04-13T02:42:01.169Z,0.00
2023-04-13T02:43:01.212Z,0.00
2023-04-13T02:44:01.570Z,0.00
2023-04-13T02:45:01.271Z,0.00
2023-04-13T02:46:01.323Z,0.00
2023-04-13T02:47:01.365Z,0.00
2023-04-13T02:48:01.472Z,0.00
2023-04-13T02:49:01.420Z,0.00
2023-04-13T02:50:01.541Z,0.00
2023-04-13T02:51:01.538Z,0.00
2023-04-13T02:52:01.589Z,0.00
2023-04-13T02:53:01.711Z,0.00
2023-04-13T02:54:01.965Z,0.00
2023-04-13T02:55:01.741Z,0.00
2023-04-13T02:56:01.790Z,0.00
2023-04-13T02:57:01.828Z,0.00
2023-04-13T02:58:01.917Z,0.00
2023-04-13T02:59:01.900Z,0.00
2023-04-13T03:00:01.938Z,0.00
2023-04-13T03:01:02.051Z,0.00
2023-04-13T03:02:02.174Z,0.00
2023-04-13T03:03:02.180Z,0.00
2023-04-13T03:04:02.171Z,0.00
2023-04-13T03:05:02.284Z,0.00
2023-04-13T03:06:02.260Z,0.00
2023-04-13T03:07:02.349Z,0.00
2023-04-13T03:08:02.300Z,0.00
2023-04-13T03:09:02.475Z,0.00
2023-04-13T03:10:02.382Z,0.00
2023-04-13T03:11:02.410Z,0.00
2023-04-13T03:12:02.509Z,0.00
2023-04-13T03:13:02.514Z,0.00
2023-04-13T03:14:02.709Z,0.00
2023-04-13T03:15:02.696Z,0.00
2023-04-13T03:16:02.627Z,0.00
2023-04-13T03:17:02.766Z,0.00
2023-04-13T03:18:02.752Z,0.00
2023-04-13T03:19:02.903Z,0.00
2023-04-13T03:20:02.798Z,0.00
2023-04-13T03:21:02.916Z,0.00
2023-04-13T03:22:02.902Z,0.00
2023-04-13T03:23:02.961Z,0.00
2023-04-13T03:24:03.044Z,0.00
2023-04-13T03:25:03.036Z,0.00
2023-04-13T03:26:03.061Z,0.00
2023-04-13T03:27:03.144Z,0.00
2023-04-13T03:28:03.164Z,0.00
2023-04-13T03:29:03.280Z,0.00
2023-04-13T03:30:03.269Z,0.00
2023-04-13T03:31:03.296Z,0.00
2023-04-13T03:32:03.398Z,0.00
2023-04-13T03:33:03.418Z,0.00
2023-04-13T03:34:03.616Z,0.00
2023-04-13T03:35:03.543Z,0.00
2023-04-13T03:36:03.543Z,0.00
2023-04-13T03:37:03.531Z,0.00
2023-04-13T03:38:03.588Z,0.00
2023-04-13T03:39:03.628Z,0.00
2023-04-13T03:40:03.744Z,0.00
2023-04-13T03:41:03.713Z,0.00
2023-04-13T03:42:03.748Z,0.00
2023-04-13T03:43:03.773Z,0.00
2023-04-13T03:44:03.820Z,0.00
2023-04-13T03:45:03.917Z,0.00
2023-04-13T03:46:03.953Z,0.00
2023-04-13T03:47:03.932Z,0.00
2023-04-13T03:48:03.998Z,0.00
2023-04-13T03:49:04.012Z,0.00
2023-04-13T03:50:04.136Z,0.00
2023-04-13T03:51:04.091Z,0.00
2023-04-13T03:52:04.157Z,0.00
2023-04-13T03:53:04.169Z,0.00
2023-04-13T03:54:04.267Z,0.00
2023-04-13T03:55:04.350Z,0.00
2023-04-13T03:56:04.306Z,0.00
2023-04-13T03:57:04.324Z,0.00
2023-04-13T03:58:04.402Z,0.00
2023-04-13T03:59:04.391Z,0.00
2023-04-13T04:00:04.443Z,0.00
2023-04-13T04:01:04.590Z,0.00
2023-04-13T04:02:04.541Z,0.00
2023-04-13T04:03:04.609Z,0.00
2023-04-13T04:04:05.016Z,0.00
2023-04-13T04:05:04.603Z,0.00
2023-04-13T04:06:04.733Z,0.00
2023-04-13T04:07:04.685Z,0.00
2023-04-13T04:08:04.729Z,0.00
2023-04-13T04:09:04.777Z,0.00
2023-04-13T04:10:04.807Z,0.00
2023-04-13T04:11:04.885Z,0.00
2023-04-13T04:12:04.882Z,0.00
2023-04-13T04:13:04.930Z,0.00
2023-04-13T04:14:04.976Z,0.00
2023-04-13T04:15:05.013Z,0.00
2023-04-13T04:16:05.139Z,4.00
2023-04-13T04:17:05.081Z,4.00
2023-04-13T04:18:05.287Z,4.00
2023-04-13T04:19:05.174Z,4.00
2023-04-13T04:20:05.211Z,0.00
2023-04-13T04:21:05.293Z,0.00
2023-04-13T04:22:05.264Z,4.00
2023-04-13T04:23:05.312Z,4.00
2023-04-13T04:24:05.341Z,4.00
2023-04-13T04:25:05.386Z,8.00
2023-04-13T04:26:05.498Z,4.00
2023-04-13T04:27:05.512Z,8.00
2023-04-13T04:28:05.484Z,8.00
2023-04-13T04:29:05.549Z,8.00
2023-04-13T04:30:05.575Z,12.00
2023-04-13T04:31:05.694Z,12.00
2023-04-13T04:32:05.917Z,20.00
2023-04-13T04:33:05.747Z,20.00
2023-04-13T04:34:05.742Z,24.00
2023-04-13T04:35:05.780Z,28.00
2023-04-13T04:36:05.869Z,28.00
2023-04-13T04:37:14.104Z,28.00
2023-04-13T04:38:07.016Z,32.00
2023-04-13T04:39:05.938Z,32.00
2023-04-13T04:40:05.992Z,40.00
2023-04-13T04:41:06.028Z,32.00
2023-04-13T04:42:06.080Z,28.00
2023-04-13T04:43:06.185Z,32.00
2023-04-13T04:44:06.158Z,36.00
2023-04-13T04:45:06.290Z,36.00
2023-04-13T04:46:06.290Z,36.00
2023-04-13T04:47:06.391Z,40.00
2023-04-13T04:48:06.385Z,40.00
2023-04-13T04:49:06.414Z,40.00
2023-04-13T04:50:06.475Z,72.00
2023-04-13T04:51:06.454Z,72.00
2023-04-13T04:52:06.513Z,76.00
2023-04-13T04:53:06.731Z,88.00
2023-04-13T04:54:06.584Z,88.00
2023-04-13T04:55:06.705Z,88.00
2023-04-13T04:56:06.701Z,84.00
2023-04-13T04:57:06.716Z,92.00
2023-04-13T04:58:06.789Z,112.00
2023-04-13T04:59:06.832Z,132.00
2023-04-13T05:00:06.919Z,108.00
2023-04-13T05:01:07.058Z,100.00
2023-04-13T05:02:07.008Z,88.00
2023-04-13T05:03:06.989Z,104.00
2023-04-13T05:04:07.091Z,112.00
2023-04-13T05:05:07.142Z,116.00
2023-04-13T05:06:07.117Z,112.00
2023-04-13T05:07:07.164Z,100.00
2023-04-13T05:08:07.304Z,128.00
2023-04-13T05:09:07.316Z,108.00
2023-04-13T05:10:07.346Z,124.00
2023-04-13T05:11:07.336Z,168.00
2023-04-13T05:12:07.402Z,176.00
2023-04-13T05:13:07.451Z,148.00
2023-04-13T05:14:07.799Z,152.00
2023-04-13T05:15:07.529Z,204.00
2023-04-13T05:16:07.750Z,268.00
2023-04-13T05:17:07.717Z,252.00
2023-04-13T05:18:07.682Z,272.00
2023-04-13T05:19:07.801Z,276.00
2023-04-13T05:20:07.782Z,308.00
2023-04-13T05:21:07.795Z,380.00
2023-04-13T05:22:07.839Z,384.00
2023-04-13T05:23:07.889Z,376.00
2023-04-13T05:24:08.009Z,308.00
2023-04-13T05:25:07.988Z,364.00
2023-04-13T05:26:08.011Z,400.00
2023-04-13T05:27:08.047Z,392.00
2023-04-13T05:28:08.088Z,344.00
2023-04-13T05:29:08.208Z,308.00
2023-04-13T05:30:08.222Z,260.00
2023-04-13T05:31:08.326Z,272.00
2023-04-13T05:32:08.390Z,240.00
2023-04-13T05:33:08.362Z,200.00
2023-04-13T05:34:08.435Z,172.00
2023-04-13T05:35:08.441Z,196.00
2023-04-13T05:36:08.458Z,248.00
2023-04-13T05:37:08.428Z,308.00
2023-04-13T05:38:08.483Z,368.00
2023-04-13T05:39:08.493Z,384.00
2023-04-13T05:40:08.579Z,360.00
2023-04-13T05:41:08.604Z,388.00
2023-04-13T05:42:08.604Z,496.00
2023-04-13T05:43:08.622Z,584.00
2023-04-13T05:44:08.687Z,604.00
2023-04-13T05:45:08.777Z,768.00
2023-04-13T05:46:08.794Z,564.00
2023-04-13T05:47:08.766Z,312.00
2023-04-13T05:48:08.897Z,260.00
2023-04-13T05:49:08.873Z,152.00
2023-04-13T05:50:08.951Z,160.00
2023-04-13T05:51:08.950Z,220.00
2023-04-13T05:52:08.973Z,224.00
2023-04-13T05:53:09.027Z,300.00
2023-04-13T05:54:09.063Z,484.00
2023-04-13T05:55:09.167Z,452.00
2023-04-13T05:56:09.135Z,500.00
2023-04-13T05:57:09.214Z,692.00
2023-04-13T05:58:09.225Z,848.00
2023-04-13T05:59:09.286Z,776.00
2023-04-13T06:00:09.370Z,732.00
2023-04-13T06:01:09.336Z,852.00
2023-04-13T06:02:09.505Z,920.00
2023-04-13T06:03:09.667Z,1052.00
2023-04-13T06:04:09.726Z,1204.00
2023-04-13T06:05:09.773Z,1500.00
2023-04-13T06:06:09.628Z,1628.00
2023-04-13T06:07:09.583Z,1836.00
2023-04-13T06:08:09.627Z,2280.00
2023-04-13T06:09:09.692Z,2660.00
2023-04-13T06:10:09.770Z,3332.00
2023-04-13T06:11:09.759Z,3112.00
2023-04-13T06:12:09.791Z,2544.00
2023-04-13T06:13:09.839Z,2508.00
2023-04-13T06:14:09.957Z,2068.00
2023-04-13T06:15:10.220Z,1536.00
2023-04-13T06:16:10.014Z,2116.00
2023-04-13T06:17:10.073Z,2240.00
2023-04-13T06:18:10.012Z,1388.00
2023-04-13T06:19:10.038Z,844.00
2023-04-13T06:20:10.213Z,948.00
2023-04-13T06:21:10.160Z,840.00
2023-04-13T06:22:10.141Z,812.00
2023-04-13T06:23:10.182Z,760.00
2023-04-13T06:24:10.229Z,800.00
2023-04-13T06:25:10.310Z,888.00
2023-04-13T06:26:10.276Z,664.00
2023-04-13T06:27:10.314Z,616.00
2023-04-13T06:28:10.359Z,664.00
2023-04-13T06:29:10.383Z,800.00
2023-04-13T06:30:10.492Z,1028.00
2023-04-13T06:32:10.479Z,688.00
2023-04-13T06:33:10.525Z,620.00
2023-04-13T06:34:10.553Z,756.00
2023-04-13T06:35:10.651Z,908.00
2023-04-13T06:36:10.629Z,1284.00
2023-04-13T06:37:10.656Z,1192.00
2023-04-13T06:38:10.665Z,1204.00
2023-04-13T06:39:10.741Z,1260.00
2023-04-13T06:40:11.047Z,1240.00
2023-04-13T06:41:10.830Z,1228.00
2023-04-13T06:42:10.792Z,1608.00
2023-04-13T06:43:18.934Z,1972.00
2023-04-13T06:44:11.850Z,1836.00
2023-04-13T06:45:10.951Z,1704.00
2023-04-13T06:46:11.012Z,1868.00
2023-04-13T06:47:10.961Z,1972.00
2023-04-13T06:48:11.013Z,2776.00
2023-04-13T06:49:11.116Z,2300.00
2023-04-13T06:50:11.058Z,2384.00
2023-04-13T06:51:11.133Z,2284.00
2023-04-13T06:52:11.126Z,2856.00
2023-04-13T06:53:11.165Z,2800.00
2023-04-13T06:54:11.185Z,2516.00
2023-04-13T06:55:11.298Z,2748.00
2023-04-13T06:56:11.329Z,2816.00
2023-04-13T06:57:11.266Z,2820.00
2023-04-13T06:58:11.328Z,2768.00
2023-04-13T06:59:11.378Z,3300.00
2023-04-13T07:00:26.042Z,2704.00
2023-04-13T07:01:12.582Z,2268.00
2023-04-13T07:02:11.519Z,2232.00
2023-04-13T07:03:11.587Z,2328.00
2023-04-13T07:04:11.728Z,3408.00
2023-04-13T07:05:11.571Z,3236.00
2023-04-13T07:06:11.582Z,3256.00
2023-04-13T07:07:11.592Z,3752.00
2023-04-13T07:08:11.609Z,3924.00
2023-04-13T07:09:11.625Z,2576.00
2023-04-13T07:10:11.594Z,2176.00
2023-04-13T07:11:11.694Z,2488.00
2023-04-13T07:12:11.704Z,1828.00
2023-04-13T07:13:11.677Z,2192.00
2023-04-13T07:14:11.744Z,2784.00
2023-04-13T07:15:11.760Z,2340.00
2023-04-13T07:16:11.883Z,2252.00
2023-04-13T07:17:13.337Z,1884.00
2023-04-13T07:18:11.782Z,1708.00
2023-04-13T07:19:11.822Z,1444.00
2023-04-13T07:20:11.864Z,1948.00
2023-04-13T07:21:12.040Z,2284.00
2023-04-13T07:22:11.875Z,2284.00
2023-04-13T07:23:11.901Z,2432.00
2023-04-13T07:24:11.951Z,2876.00
2023-04-13T07:25:12.031Z,2620.00
2023-04-13T07:26:11.988Z,2696.00
2023-04-13T07:27:12.001Z,2516.00
2023-04-13T07:28:12.108Z,2136.00
2023-04-13T07:29:12.066Z,2512.00
2023-04-13T07:30:12.098Z,2284.00
2023-04-13T07:31:12.152Z,1744.00
2023-04-13T07:32:12.127Z,2832.00
2023-04-13T07:33:12.228Z,3940.00
2023-04-13T07:34:12.156Z,3348.00
2023-04-13T07:35:12.182Z,3628.00
2023-04-13T07:36:12.185Z,3304.00
2023-04-13T07:37:12.289Z,2372.00
2023-04-13T07:38:13.641Z,2620.00
2023-04-13T07:39:12.241Z,4000.00
2023-04-13T07:40:33.315Z,2988.00
2023-04-13T07:41:12.433Z,2896.00
2023-04-13T07:42:12.289Z,3464.00
2023-04-13T07:43:13.358Z,4052.00
2023-04-13T07:44:12.376Z,3276.00
2023-04-13T07:45:12.940Z,3332.00
2023-04-13T07:46:12.395Z,2808.00
2023-04-13T07:47:12.429Z,2760.00
2023-04-13T07:48:12.493Z,2784.00
2023-04-13T07:49:12.620Z,2840.00
2023-04-13T07:50:12.445Z,3360.00
2023-04-13T07:51:12.501Z,3788.00
2023-04-13T07:52:12.532Z,3032.00
2023-04-13T07:53:12.484Z,2944.00
2023-04-13T07:54:13.943Z,2292.00
2023-04-13T07:55:12.494Z,2080.00
2023-04-13T07:56:12.575Z,2164.00
2023-04-13T07:57:12.685Z,1604.00
2023-04-13T07:58:12.722Z,1688.00
2023-04-13T07:59:12.588Z,1776.00
2023-04-13T08:00:12.596Z,1984.00
2023-04-13T08:01:12.612Z,2096.00
2023-04-13T08:02:12.779Z,2428.00
2023-04-13T08:03:12.872Z,2640.00
2023-04-13T08:04:12.757Z,2720.00
2023-04-13T08:05:12.774Z,2832.00
2023-04-13T08:06:12.707Z,2808.00
2023-04-13T08:07:12.680Z,2740.00
2023-04-13T08:08:12.771Z,3488.00
2023-04-13T08:09:12.744Z,3620.00
2023-04-13T08:10:12.808Z,3956.00
2023-04-13T08:11:12.774Z,4900.00
2023-04-13T08:12:12.930Z,6492.00
2023-04-13T08:13:12.816Z,5980.00
2023-04-13T08:14:12.821Z,5488.00
2023-04-13T08:15:12.845Z,5136.00
2023-04-13T08:16:12.898Z,5036.00
2023-04-13T08:17:12.963Z,4404.00
2023-04-13T08:18:12.887Z,4128.00
2023-04-13T08:19:12.919Z,5080.00
2023-04-13T08:20:12.934Z,4756.00
2023-04-13T08:21:12.923Z,4476.00
2023-04-13T08:22:12.917Z,3568.00
2023-04-13T08:23:12.966Z,4260.00
2023-04-13T08:24:12.934Z,3644.00
2023-04-13T08:25:12.943Z,4428.00
2023-04-13T08:26:12.992Z,3868.00
2023-04-13T08:27:12.971Z,4556.00
2023-04-13T08:28:13.072Z,3892.00
2023-04-13T08:29:13.032Z,3632.00
2023-04-13T08:30:13.016Z,4424.00
2023-04-13T08:31:12.992Z,4968.00
2023-04-13T08:32:13.149Z,3976.00
2023-04-13T08:33:13.010Z,3968.00
2023-04-13T08:34:13.013Z,4256.00
2023-04-13T08:35:13.177Z,4716.00
2023-04-13T08:36:13.022Z,5164.00
2023-04-13T08:37:13.041Z,4408.00
2023-04-13T08:38:13.047Z,5204.00
2023-04-13T08:39:13.050Z,6012.00
2023-04-13T08:40:13.139Z,5476.00
2023-04-13T08:41:13.059Z,5256.00
2023-04-13T08:42:13.073Z,4740.00
2023-04-13T08:43:13.069Z,4224.00
2023-04-13T08:44:13.090Z,3928.00
2023-04-13T08:45:13.128Z,4420.00
2023-04-13T08:46:13.252Z,4700.00
2023-04-13T08:47:13.075Z,4784.00
2023-04-13T08:48:13.126Z,4452.00
2023-04-13T08:49:13.213Z,4192.00
2023-04-13T08:50:13.167Z,4060.00
2023-04-13T08:51:13.073Z,3772.00
2023-04-13T08:52:15.079Z,4280.00
2023-04-13T08:53:13.101Z,5132.00
2023-04-13T08:54:13.097Z,5292.00
2023-04-13T08:55:13.985Z,4460.00
2023-04-13T08:56:13.107Z,3992.00
2023-04-13T08:57:13.333Z,3568.00
2023-04-13T08:58:13.092Z,3044.00
2023-04-13T08:59:13.123Z,3200.00
2023-04-13T09:00:13.162Z,4404.00
2023-04-13T09:01:13.174Z,4032.00
2023-04-13T09:02:13.380Z,3868.00
2023-04-13T09:03:14.705Z,3444.00
2023-04-13T09:04:13.570Z,3044.00
2023-04-13T09:05:13.517Z,3524.00
2023-04-13T09:06:13.201Z,2764.00
2023-04-13T09:07:13.256Z,2816.00
2023-04-13T09:08:13.182Z,3256.00
2023-04-13T09:09:13.185Z,3048.00
2023-04-13T09:10:13.189Z,2556.00
2023-04-13T09:11:13.186Z,2876.00
2023-04-13T09:12:13.256Z,2832.00
2023-04-13T09:13:13.649Z,4440.00
2023-04-13T09:14:13.221Z,5528.00
2023-04-13T09:15:13.272Z,5448.00
2023-04-13T09:16:13.245Z,4960.00
2023-04-13T09:17:13.353Z,3832.00
2023-04-13T09:18:13.277Z,3064.00
2023-04-13T09:19:13.297Z,2620.00
2023-04-13T09:20:13.374Z,2124.00
2023-04-13T09:21:13.282Z,1984.00
2023-04-13T09:22:13.268Z,2008.00
2023-04-13T09:23:13.277Z,2424.00
2023-04-13T09:24:13.312Z,2712.00
2023-04-13T09:25:13.374Z,2752.00
2023-04-13T09:26:13.340Z,2760.00
2023-04-13T09:27:13.398Z,2404.00
2023-04-13T09:28:13.332Z,2760.00
2023-04-13T09:29:13.369Z,2884.00
2023-04-13T09:30:13.402Z,3252.00
2023-04-13T09:31:13.394Z,3524.00
2023-04-13T09:32:13.462Z,3632.00
2023-04-13T09:33:13.475Z,4040.00
2023-04-13T09:34:13.499Z,4832.00
2023-04-13T09:35:13.431Z,5552.00
2023-04-13T09:36:13.474Z,5348.00
2023-04-13T09:37:13.460Z,4648.00
2023-04-13T09:38:13.521Z,4776.00
2023-04-13T09:39:13.492Z,5484.00
2023-04-13T09:40:13.526Z,5160.00
2023-04-13T09:41:13.529Z,5868.00
2023-04-13T09:42:13.517Z,5820.00
2023-04-13T09:43:13.614Z,5080.00
2023-04-13T09:44:13.564Z,5404.00
2023-04-13T09:45:13.595Z,6276.00
2023-04-13T09:46:13.634Z,6612.00
2023-04-13T09:47:13.585Z,6400.00
2023-04-13T09:48:13.618Z,5548.00
2023-04-13T09:49:13.663Z,5276.00
2023-04-13T09:50:13.573Z,4480.00
2023-04-13T09:51:13.590Z,4440.00
2023-04-13T09:52:13.592Z,3708.00
2023-04-13T09:53:14.009Z,3224.00
2023-04-13T09:54:13.882Z,2776.00
2023-04-13T09:55:13.602Z,2236.00
2023-04-13T09:56:13.623Z,2988.00
2023-04-13T09:57:13.629Z,2976.00
2023-04-13T09:58:13.724Z,2824.00
2023-04-13T09:59:13.704Z,3636.00
2023-04-13T10:00:13.648Z,3444.00
2023-04-13T10:01:13.744Z,3448.00
2023-04-13T10:02:13.763Z,4048.00
2023-04-13T10:03:13.835Z,3388.00
2023-04-13T10:04:13.795Z,2756.00
2023-04-13T10:05:13.719Z,3552.00
2023-04-13T10:06:13.702Z,4456.00
2023-04-13T10:07:13.713Z,4952.00
2023-04-13T10:08:15.266Z,5620.00
2023-04-13T10:09:13.791Z,6372.00
2023-04-13T10:10:13.776Z,6684.00
2023-04-13T10:11:13.766Z,6440.00
2023-04-13T10:12:13.861Z,6368.00
2023-04-13T10:13:21.564Z,6032.00
2023-04-13T10:14:14.766Z,5664.00
2023-04-13T10:15:13.927Z,5812.00
2023-04-13T10:16:13.832Z,4404.00
2023-04-13T10:17:13.839Z,4572.00
2023-04-13T10:18:13.872Z,4316.00
2023-04-13T10:19:13.842Z,4940.00
2023-04-13T10:20:14.062Z,4748.00
2023-04-13T10:21:13.823Z,3260.00
2023-04-13T10:22:13.805Z,5200.00
2023-04-13T10:23:13.880Z,4992.00
2023-04-13T10:24:13.831Z,4648.00
2023-04-13T10:25:18.682Z,3972.00
2023-04-13T10:26:14.887Z,3220.00
2023-04-13T10:27:13.958Z,2428.00
2023-04-13T10:28:13.814Z,2944.00
2023-04-13T10:29:13.807Z,3896.00
2023-04-13T10:30:13.890Z,4336.00
2023-04-13T10:31:13.902Z,5124.00
2023-04-13T10:32:13.824Z,4052.00
2023-04-13T10:33:13.846Z,2776.00
2023-04-13T10:34:14.030Z,2500.00
2023-04-13T10:35:13.870Z,2704.00
2023-04-13T10:36:13.829Z,2660.00
2023-04-13T10:37:13.950Z,2688.00
2023-04-13T10:38:13.841Z,2400.00
2023-04-13T10:39:13.868Z,2952.00
2023-04-13T10:40:14.057Z,4388.00
2023-04-13T10:41:13.929Z,4308.00
2023-04-13T10:42:15.416Z,4308.00
2023-04-13T10:43:13.873Z,4768.00
2023-04-13T10:44:13.898Z,4916.00
2023-04-13T10:45:13.977Z,5640.00
2023-04-13T10:46:14.076Z,6688.00
2023-04-13T10:47:13.993Z,7888.00
2023-04-13T10:48:14.012Z,7324.00
2023-04-13T10:49:13.917Z,6620.00
2023-04-13T10:50:13.967Z,7152.00
2023-04-13T10:51:14.515Z,6336.00
2023-04-13T10:52:13.927Z,5408.00
2023-04-13T10:53:13.901Z,4868.00
2023-04-13T10:54:13.908Z,4508.00
2023-04-13T10:55:13.979Z,4796.00
2023-04-13T10:56:13.960Z,5036.00
2023-04-13T10:57:13.878Z,4980.00
2023-04-13T10:58:13.959Z,5608.00
2023-04-13T10:59:13.844Z,6244.00
2023-04-13T11:00:13.844Z,6016.00
2023-04-13T11:01:13.965Z,6880.00
2023-04-13T11:02:13.996Z,6584.00
2023-04-13T11:03:14.008Z,5592.00
2023-04-13T11:04:16.181Z,4544.00
2023-04-13T11:05:13.786Z,4720.00
2023-04-13T11:06:13.877Z,4740.00
2023-04-13T11:07:13.797Z,4816.00
2023-04-13T11:08:13.857Z,4156.00
2023-04-13T11:09:16.633Z,2972.00
2023-04-13T11:10:13.705Z,2756.00
2023-04-13T11:11:15.063Z,2772.00
2023-04-13T11:12:13.734Z,3068.00
2023-04-13T11:13:13.656Z,3808.00
2023-04-13T11:14:13.687Z,3948.00
2023-04-13T11:15:13.703Z,3364.00
2023-04-13T11:16:13.772Z,2880.00
2023-04-13T11:17:13.832Z,3496.00
2023-04-13T11:18:13.616Z,3956.00
2023-04-13T11:19:13.572Z,3732.00
2023-04-13T11:20:13.603Z,4752.00
2023-04-13T11:21:13.614Z,5280.00
2023-04-13T11:22:13.606Z,5080.00
2023-04-13T11:23:13.513Z,4836.00
2023-04-13T11:24:13.511Z,4132.00
2023-04-13T11:25:13.489Z,4012.00
2023-04-13T11:26:13.524Z,4328.00
2023-04-13T11:27:13.486Z,5156.00
2023-04-13T11:28:13.418Z,5320.00
2023-04-13T11:29:13.406Z,5872.00
2023-04-13T11:30:13.496Z,6504.00
2023-04-13T11:31:13.462Z,6112.00
2023-04-13T11:32:13.461Z,6336.00
2023-04-13T11:33:13.482Z,6324.00
2023-04-13T11:34:13.393Z,6180.00
2023-04-13T11:35:13.336Z,5572.00
2023-04-13T11:36:13.404Z,4544.00
2023-04-13T11:37:13.333Z,4184.00
2023-04-13T11:38:13.277Z,4292.00
2023-04-13T11:39:13.349Z,4320.00
2023-04-13T11:40:13.307Z,4292.00
2023-04-13T11:41:17.068Z,4372.00
2023-04-13T11:42:13.354Z,4292.00
2023-04-13T11:43:13.228Z,4920.00
2023-04-13T11:44:13.223Z,6052.00
2023-04-13T11:45:13.259Z,6632.00
2023-04-13T11:46:13.233Z,6480.00
2023-04-13T11:47:13.254Z,6544.00
2023-04-13T11:48:13.160Z,6896.00
2023-04-13T11:49:13.128Z,6720.00
2023-04-13T11:50:15.467Z,5580.00
2023-04-13T11:51:13.083Z,5308.00
2023-04-13T11:52:13.091Z,5932.00
2023-04-13T11:53:13.134Z,5224.00
2023-04-13T11:54:13.037Z,4760.00
2023-04-13T11:55:22.267Z,3140.00
2023-04-13T11:56:14.005Z,3100.00
2023-04-13T11:57:13.029Z,3288.00
2023-04-13T11:58:13.129Z,4820.00
2023-04-13T11:59:12.941Z,5516.00
2023-04-13T12:00:12.958Z,4544.00
2023-04-13T12:01:14.962Z,3088.00
2023-04-13T12:02:21.979Z,3836.00
2023-04-13T12:03:34.477Z,3684.00
2023-04-13T12:04:16.402Z,3664.00
2023-04-13T12:05:13.000Z,3616.00
2023-04-13T12:06:13.253Z,3608.00
2023-04-13T12:07:13.710Z,3660.00
2023-04-13T12:08:13.416Z,3732.00
2023-04-13T12:09:15.786Z,4020.00
2023-04-13T12:11:36.761Z,4060.00
2023-04-13T12:12:46.442Z,4276.00
2023-04-13T12:14:17.062Z,4868.00
2023-04-13T12:15:33.946Z,5172.00
2023-04-13T12:18:15.212Z,6068.00
2023-04-13T12:19:14.125Z,6548.00
2023-04-13T12:20:12.584Z,7312.00
2023-04-13T12:21:13.400Z,7948.00
2023-04-13T12:22:12.415Z,6892.00
2023-04-13T12:23:21.922Z,7296.00
2023-04-13T12:24:13.242Z,8412.00
2023-04-13T12:25:12.240Z,8048.00
2023-04-13T12:28:12.102Z,7352.00
2023-04-13T12:29:12.022Z,7008.00
2023-04-13T12:30:11.989Z,6896.00
2023-04-13T12:31:12.069Z,6704.00
2023-04-13T12:32:11.912Z,7116.00
2023-04-13T12:33:11.898Z,6064.00
2023-04-13T12:34:11.870Z,6856.00
2023-04-13T12:35:11.811Z,6568.00
2023-04-13T12:36:11.780Z,6032.00
2023-04-13T12:37:11.933Z,5648.00
2023-04-13T12:38:11.682Z,5152.00
2023-04-13T12:39:11.653Z,4728.00
2023-04-13T12:40:11.807Z,4380.00
2023-04-13T12:41:11.584Z,4188.00
2023-04-13T12:42:11.653Z,4076.00